sensor_id;sensor_type;location;lat;lon;timestamp;P1;durP1;ratioP1;P2;durP2;ratioP2
80235;SDS011;69543;42.138;24.742;2023-04-25T00:01:10;3.17;;;2.55;;
80235;SDS011;69543;42.138;24.742;2023-04-25T00:03:38;2.50;;;2.30;;
80235;SDS011;69543;42.138;24.742;2023-04-25T00:06:05;2.47;;;2.25;;
80235;SDS011;69543;42.138;24.742;2023-04-25T00:08:31;2.60;;;2.40;;
80235;SDS011;69543;42.138;24.742;2023-04-25T00:10:57;3.03;;;2.22;;
80235;SDS011;69543;42.138;24.742;2023-04-25T00:13:23;3.55;;;2.70;;
80235;SDS011;69543;42.138;24.742;2023-04-25T00:15:50;2.42;;;2.22;;
80235;SDS011;69543;42.138;24.742;2023-04-25T00:18:18;2.88;;;2.30;;
80235;SDS011;69543;42.138;24.742;2023-04-25T00:20:44;2.88;;;2.53;;
80235;SDS011;69543;42.138;24.742;2023-04-25T00:23:15;3.83;;;2.53;;
80235;SDS011;69543;42.138;24.742;2023-04-25T00:25:44;3.13;;;2.40;;
80235;SDS011;69543;42.138;24.742;2023-04-25T00:28:11;2.53;;;2.33;;
80235;SDS011;69543;42.138;24.742;2023-04-25T00:30:38;2.70;;;2.50;;
80235;SDS011;69543;42.138;24.742;2023-04-25T00:33:04;3.25;;;2.47;;
80235;SDS011;69543;42.138;24.742;2023-04-25T00:35:30;2.47;;;2.20;;
80235;SDS011;69543;42.138;24.742;2023-04-25T00:37:56;2.67;;;2.40;;
80235;SDS011;69543;42.138;24.742;2023-04-25T00:40:21;2.58;;;2.33;;
80235;SDS011;69543;42.138;24.742;2023-04-25T00:42:47;2.40;;;2.20;;
80235;SDS011;69543;42.138;24.742;2023-04-25T00:45:13;2.42;;;2.22;;
80235;SDS011;69543;42.138;24.742;2023-04-25T00:47:40;2.72;;;2.30;;
80235;SDS011;69543;42.138;24.742;2023-04-25T00:50:07;2.30;;;2.10;;
80235;SDS011;69543;42.138;24.742;2023-04-25T00:52:33;2.50;;;2.30;;
80235;SDS011;69543;42.138;24.742;2023-04-25T00:54:59;2.40;;;2.20;;
80235;SDS011;69543;42.138;24.742;2023-04-25T00:57:25;2.30;;;1.90;;
80235;SDS011;69543;42.138;24.742;2023-04-25T00:59:51;2.67;;;2.47;;
80235;SDS011;69543;42.138;24.742;2023-04-25T01:02:19;2.63;;;2.10;;
80235;SDS011;69543;42.138;24.742;2023-04-25T01:04:45;2.33;;;2.10;;
80235;SDS011;69543;42.138;24.742;2023-04-25T01:07:12;2.45;;;2.20;;
80235;SDS011;69543;42.138;24.742;2023-04-25T01:09:39;2.40;;;2.20;;
80235;SDS011;69543;42.138;24.742;2023-04-25T01:12:05;2.47;;;2.28;;
80235;SDS011;69543;42.138;24.742;2023-04-25T01:14:31;2.53;;;2.33;;
80235;SDS011;69543;42.138;24.742;2023-04-25T01:16:57;2.28;;;2.08;;
80235;SDS011;69543;42.138;24.742;2023-04-25T01:19:23;2.78;;;2.30;;
80235;SDS011;69543;42.138;24.742;2023-04-25T01:21:49;2.30;;;2.10;;
80235;SDS011;69543;42.138;24.742;2023-04-25T01:24:16;2.67;;;2.47;;
80235;SDS011;69543;42.138;24.742;2023-04-25T01:26:42;2.80;;;2.50;;
80235;SDS011;69543;42.138;24.742;2023-04-25T01:29:15;2.40;;;2.20;;
80235;SDS011;69543;42.138;24.742;2023-04-25T01:31:42;2.30;;;2.10;;
80235;SDS011;69543;42.138;24.742;2023-04-25T01:34:09;2.15;;;2.00;;
80235;SDS011;69543;42.138;24.742;2023-04-25T01:36:35;2.05;;;1.85;;
80235;SDS011;69543;42.138;24.742;2023-04-25T01:39:00;2.13;;;1.92;;
80235;SDS011;69543;42.138;24.742;2023-04-25T01:41:27;2.67;;;2.20;;
80235;SDS011;69543;42.138;24.742;2023-04-25T01:43:52;2.20;;;2.00;;
80235;SDS011;69543;42.138;24.742;2023-04-25T01:46:18;3.55;;;2.13;;
80235;SDS011;69543;42.138;24.742;2023-04-25T01:48:44;3.90;;;2.03;;
80235;SDS011;69543;42.138;24.742;2023-04-25T01:51:10;2.35;;;2.15;;
80235;SDS011;69543;42.138;24.742;2023-04-25T01:53:36;2.83;;;2.20;;
80235;SDS011;69543;42.138;24.742;2023-04-25T01:56:03;2.30;;;2.10;;
80235;SDS011;69543;42.138;24.742;2023-04-25T01:58:29;2.25;;;2.08;;
80235;SDS011;69543;42.138;24.742;2023-04-25T02:00:55;2.75;;;1.90;;
80235;SDS011;69543;42.138;24.742;2023-04-25T02:03:20;2.00;;;1.80;;
80235;SDS011;69543;42.138;24.742;2023-04-25T02:05:46;2.83;;;2.50;;
80235;SDS011;69543;42.138;24.742;2023-04-25T02:08:11;2.78;;;2.10;;
80235;SDS011;69543;42.138;24.742;2023-04-25T02:10:37;3.70;;;1.88;;
80235;SDS011;69543;42.138;24.742;2023-04-25T02:13:03;1.90;;;1.80;;
80235;SDS011;69543;42.138;24.742;2023-04-25T02:15:30;2.45;;;2.22;;
80235;SDS011;69543;42.138;24.742;2023-04-25T02:17:55;2.42;;;1.92;;
80235;SDS011;69543;42.138;24.742;2023-04-25T02:20:21;2.05;;;1.95;;
80235;SDS011;69543;42.138;24.742;2023-04-25T02:22:48;2.45;;;1.90;;
80235;SDS011;69543;42.138;24.742;2023-04-25T02:25:14;2.15;;;2.00;;
80235;SDS011;69543;42.138;24.742;2023-04-25T02:27:41;2.33;;;2.13;;
80235;SDS011;69543;42.138;24.742;2023-04-25T02:30:08;2.95;;;2.05;;
80235;SDS011;69543;42.138;24.742;2023-04-25T02:32:34;2.38;;;2.00;;
80235;SDS011;69543;42.138;24.742;2023-04-25T02:35:00;2.30;;;2.10;;
80235;SDS011;69543;42.138;24.742;2023-04-25T02:37:31;2.20;;;2.00;;
80235;SDS011;69543;42.138;24.742;2023-04-25T02:39:58;2.28;;;2.08;;
80235;SDS011;69543;42.138;24.742;2023-04-25T02:42:24;1.90;;;1.80;;
80235;SDS011;69543;42.138;24.742;2023-04-25T02:44:50;1.98;;;1.83;;
80235;SDS011;69543;42.138;24.742;2023-04-25T02:47:16;1.98;;;1.80;;
80235;SDS011;69543;42.138;24.742;2023-04-25T02:49:41;2.17;;;1.80;;
80235;SDS011;69543;42.138;24.742;2023-04-25T02:52:07;2.80;;;1.75;;
80235;SDS011;69543;42.138;24.742;2023-04-25T02:54:33;2.05;;;1.90;;
80235;SDS011;69543;42.138;24.742;2023-04-25T02:56:59;2.22;;;1.90;;
80235;SDS011;69543;42.138;24.742;2023-04-25T02:59:25;2.15;;;1.95;;
80235;SDS011;69543;42.138;24.742;2023-04-25T03:01:51;2.42;;;2.20;;
80235;SDS011;69543;42.138;24.742;2023-04-25T03:04:17;1.80;;;1.70;;
80235;SDS011;69543;42.138;24.742;2023-04-25T03:06:44;2.30;;;2.10;;
80235;SDS011;69543;42.138;24.742;2023-04-25T03:09:09;2.20;;;1.80;;
80235;SDS011;69543;42.138;24.742;2023-04-25T03:11:36;2.10;;;1.90;;
80235;SDS011;69543;42.138;24.742;2023-04-25T03:14:03;2.28;;;2.08;;
80235;SDS011;69543;42.138;24.742;2023-04-25T03:16:29;3.10;;;2.00;;
80235;SDS011;69543;42.138;24.742;2023-04-25T03:18:55;2.13;;;1.92;;
80235;SDS011;69543;42.138;24.742;2023-04-25T03:21:21;2.10;;;1.90;;
80235;SDS011;69543;42.138;24.742;2023-04-25T03:23:47;1.95;;;1.75;;
80235;SDS011;69543;42.138;24.742;2023-04-25T03:26:12;1.90;;;1.80;;
80235;SDS011;69543;42.138;24.742;2023-04-25T03:28:38;1.80;;;1.70;;
80235;SDS011;69543;42.138;24.742;2023-04-25T03:31:05;1.75;;;1.65;;
80235;SDS011;69543;42.138;24.742;2023-04-25T03:33:30;2.00;;;1.80;;
80235;SDS011;69543;42.138;24.742;2023-04-25T03:35:56;2.28;;;1.88;;
80235;SDS011;69543;42.138;24.742;2023-04-25T03:38:22;2.10;;;1.90;;
80235;SDS011;69543;42.138;24.742;2023-04-25T03:40:48;1.90;;;1.70;;
80235;SDS011;69543;42.138;24.742;2023-04-25T03:43:15;2.08;;;1.98;;
80235;SDS011;69543;42.138;24.742;2023-04-25T03:45:41;1.90;;;1.80;;
80235;SDS011;69543;42.138;24.742;2023-04-25T03:48:07;1.88;;;1.77;;
80235;SDS011;69543;42.138;24.742;2023-04-25T03:50:32;2.13;;;1.90;;
80235;SDS011;69543;42.138;24.742;2023-04-25T03:52:58;2.20;;;2.00;;
80235;SDS011;69543;42.138;24.742;2023-04-25T03:55:24;2.00;;;1.80;;
80235;SDS011;69543;42.138;24.742;2023-04-25T03:57:49;3.65;;;2.00;;
80235;SDS011;69543;42.138;24.742;2023-04-25T04:00:15;3.83;;;2.83;;
80235;SDS011;69543;42.138;24.742;2023-04-25T04:02:41;5.03;;;3.15;;
80235;SDS011;69543;42.138;24.742;2023-04-25T04:05:07;4.15;;;3.05;;
80235;SDS011;69543;42.138;24.742;2023-04-25T04:07:32;3.38;;;2.85;;
80235;SDS011;69543;42.138;24.742;2023-04-25T04:10:00;5.93;;;3.05;;
80235;SDS011;69543;42.138;24.742;2023-04-25T04:12:26;3.53;;;2.92;;
80235;SDS011;69543;42.138;24.742;2023-04-25T04:14:51;3.58;;;2.63;;
80235;SDS011;69543;42.138;24.742;2023-04-25T04:17:17;3.80;;;3.08;;
80235;SDS011;69543;42.138;24.742;2023-04-25T04:19:42;5.00;;;3.00;;
80235;SDS011;69543;42.138;24.742;2023-04-25T04:22:09;4.47;;;3.47;;
80235;SDS011;69543;42.138;24.742;2023-04-25T04:24:35;4.70;;;3.58;;
80235;SDS011;69543;42.138;24.742;2023-04-25T04:27:00;7.22;;;4.40;;
80235;SDS011;69543;42.138;24.742;2023-04-25T04:29:26;7.03;;;4.60;;
80235;SDS011;69543;42.138;24.742;2023-04-25T04:31:52;6.65;;;5.70;;
80235;SDS011;69543;42.138;24.742;2023-04-25T04:34:17;9.38;;;5.30;;
80235;SDS011;69543;42.138;24.742;2023-04-25T04:36:46;6.45;;;4.70;;
80235;SDS011;69543;42.138;24.742;2023-04-25T04:39:12;7.38;;;4.97;;
80235;SDS011;69543;42.138;24.742;2023-04-25T04:41:38;8.60;;;5.50;;
80235;SDS011;69543;42.138;24.742;2023-04-25T04:44:05;9.15;;;5.70;;
80235;SDS011;69543;42.138;24.742;2023-04-25T04:46:31;9.07;;;5.90;;
80235;SDS011;69543;42.138;24.742;2023-04-25T04:49:04;6.95;;;5.40;;
80235;SDS011;69543;42.138;24.742;2023-04-25T04:51:30;8.75;;;4.85;;
80235;SDS011;69543;42.138;24.742;2023-04-25T04:53:56;10.85;;;5.40;;
80235;SDS011;69543;42.138;24.742;2023-04-25T04:56:23;10.95;;;5.75;;
80235;SDS011;69543;42.138;24.742;2023-04-25T04:58:50;9.13;;;5.38;;
80235;SDS011;69543;42.138;24.742;2023-04-25T05:01:17;9.98;;;5.65;;
80235;SDS011;69543;42.138;24.742;2023-04-25T05:03:43;8.18;;;5.53;;
80235;SDS011;69543;42.138;24.742;2023-04-25T05:06:08;10.90;;;5.70;;
80235;SDS011;69543;42.138;24.742;2023-04-25T05:08:34;8.25;;;5.90;;
80235;SDS011;69543;42.138;24.742;2023-04-25T05:11:01;7.40;;;5.20;;
80235;SDS011;69543;42.138;24.742;2023-04-25T05:13:27;7.78;;;5.72;;
80235;SDS011;69543;42.138;24.742;2023-04-25T05:15:52;7.82;;;6.13;;
80235;SDS011;69543;42.138;24.742;2023-04-25T05:18:18;7.63;;;5.45;;
80235;SDS011;69543;42.138;24.742;2023-04-25T05:20:44;7.90;;;5.47;;
80235;SDS011;69543;42.138;24.742;2023-04-25T05:23:09;14.63;;;5.45;;
80235;SDS011;69543;42.138;24.742;2023-04-25T05:25:35;9.20;;;5.03;;
80235;SDS011;69543;42.138;24.742;2023-04-25T05:28:01;7.13;;;5.03;;
80235;SDS011;69543;42.138;24.742;2023-04-25T05:30:26;9.18;;;5.10;;
80235;SDS011;69543;42.138;24.742;2023-04-25T05:32:52;6.97;;;4.90;;
80235;SDS011;69543;42.138;24.742;2023-04-25T05:35:17;7.43;;;5.20;;
80235;SDS011;69543;42.138;24.742;2023-04-25T05:37:43;7.65;;;5.03;;
80235;SDS011;69543;42.138;24.742;2023-04-25T05:40:09;7.70;;;5.28;;
80235;SDS011;69543;42.138;24.742;2023-04-25T05:42:35;8.40;;;4.70;;
80235;SDS011;69543;42.138;24.742;2023-04-25T05:45:00;13.27;;;5.10;;
80235;SDS011;69543;42.138;24.742;2023-04-25T05:47:26;7.38;;;4.80;;
80235;SDS011;69543;42.138;24.742;2023-04-25T05:49:52;8.07;;;4.85;;
80235;SDS011;69543;42.138;24.742;2023-04-25T05:52:18;7.22;;;4.78;;
80235;SDS011;69543;42.138;24.742;2023-04-25T05:54:43;9.05;;;4.50;;
80235;SDS011;69543;42.138;24.742;2023-04-25T05:57:17;6.93;;;4.28;;
80235;SDS011;69543;42.138;24.742;2023-04-25T05:59:50;6.28;;;4.63;;
80235;SDS011;69543;42.138;24.742;2023-04-25T06:02:16;8.80;;;5.10;;
80235;SDS011;69543;42.138;24.742;2023-04-25T06:04:42;7.03;;;5.00;;
80235;SDS011;69543;42.138;24.742;2023-04-25T06:07:07;9.32;;;4.40;;
80235;SDS011;69543;42.138;24.742;2023-04-25T06:09:33;6.03;;;4.10;;
80235;SDS011;69543;42.138;24.742;2023-04-25T06:11:59;7.32;;;4.47;;
80235;SDS011;69543;42.138;24.742;2023-04-25T06:14:26;5.35;;;4.25;;
80235;SDS011;69543;42.138;24.742;2023-04-25T06:16:51;7.30;;;4.20;;
80235;SDS011;69543;42.138;24.742;2023-04-25T06:19:17;7.85;;;3.88;;
80235;SDS011;69543;42.138;24.742;2023-04-25T06:21:43;9.32;;;4.05;;
80235;SDS011;69543;42.138;24.742;2023-04-25T06:24:09;9.95;;;4.43;;
80235;SDS011;69543;42.138;24.742;2023-04-25T06:26:35;5.72;;;4.07;;
80235;SDS011;69543;42.138;24.742;2023-04-25T06:29:01;5.55;;;3.75;;
80235;SDS011;69543;42.138;24.742;2023-04-25T06:31:26;6.05;;;3.92;;
80235;SDS011;69543;42.138;24.742;2023-04-25T06:33:53;7.65;;;4.15;;
80235;SDS011;69543;42.138;24.742;2023-04-25T06:36:22;8.98;;;3.92;;
80235;SDS011;69543;42.138;24.742;2023-04-25T06:38:53;7.78;;;3.75;;
80235;SDS011;69543;42.138;24.742;2023-04-25T06:41:19;4.05;;;3.30;;
80235;SDS011;69543;42.138;24.742;2023-04-25T06:43:45;7.65;;;3.60;;
80235;SDS011;69543;42.138;24.742;2023-04-25T06:46:11;5.75;;;3.80;;
80235;SDS011;69543;42.138;24.742;2023-04-25T06:48:36;8.55;;;3.55;;
80235;SDS011;69543;42.138;24.742;2023-04-25T06:51:02;5.00;;;3.50;;
80235;SDS011;69543;42.138;24.742;2023-04-25T06:53:28;7.35;;;3.47;;
80235;SDS011;69543;42.138;24.742;2023-04-25T06:55:54;6.80;;;4.05;;
80235;SDS011;69543;42.138;24.742;2023-04-25T06:58:19;3.67;;;3.15;;
80235;SDS011;69543;42.138;24.742;2023-04-25T07:00:45;9.63;;;3.45;;
80235;SDS011;69543;42.138;24.742;2023-04-25T07:03:11;4.72;;;3.20;;
80235;SDS011;69543;42.138;24.742;2023-04-25T07:05:37;10.93;;;3.70;;
80235;SDS011;69543;42.138;24.742;2023-04-25T07:08:02;8.70;;;3.38;;
80235;SDS011;69543;42.138;24.742;2023-04-25T07:10:28;6.22;;;3.22;;
80235;SDS011;69543;42.138;24.742;2023-04-25T07:12:54;6.78;;;3.30;;
80235;SDS011;69543;42.138;24.742;2023-04-25T07:15:20;7.00;;;3.50;;
80235;SDS011;69543;42.138;24.742;2023-04-25T07:17:46;5.55;;;3.45;;
80235;SDS011;69543;42.138;24.742;2023-04-25T07:20:11;7.72;;;3.55;;
80235;SDS011;69543;42.138;24.742;2023-04-25T07:22:37;8.50;;;3.25;;
80235;SDS011;69543;42.138;24.742;2023-04-25T07:25:03;4.70;;;3.30;;
80235;SDS011;69543;42.138;24.742;2023-04-25T07:27:30;8.75;;;3.30;;
80235;SDS011;69543;42.138;24.742;2023-04-25T07:29:56;6.15;;;3.22;;
80235;SDS011;69543;42.138;24.742;2023-04-25T07:32:22;4.13;;;3.17;;
80235;SDS011;69543;42.138;24.742;2023-04-25T07:34:48;5.00;;;3.58;;
80235;SDS011;69543;42.138;24.742;2023-04-25T07:37:13;8.05;;;3.38;;
80235;SDS011;69543;42.138;24.742;2023-04-25T07:39:39;7.10;;;3.17;;
80235;SDS011;69543;42.138;24.742;2023-04-25T07:42:05;7.43;;;3.58;;
80235;SDS011;69543;42.138;24.742;2023-04-25T07:44:33;7.80;;;3.35;;
80235;SDS011;69543;42.138;24.742;2023-04-25T07:47:04;15.10;;;3.40;;
80235;SDS011;69543;42.138;24.742;2023-04-25T07:49:32;6.05;;;3.40;;
80235;SDS011;69543;42.138;24.742;2023-04-25T07:52:02;5.13;;;3.15;;
80235;SDS011;69543;42.138;24.742;2023-04-25T07:54:30;7.05;;;3.33;;
80235;SDS011;69543;42.138;24.742;2023-04-25T07:56:56;5.80;;;2.92;;
80235;SDS011;69543;42.138;24.742;2023-04-25T07:59:21;5.07;;;3.00;;
80235;SDS011;69543;42.138;24.742;2023-04-25T08:01:47;9.05;;;3.15;;
80235;SDS011;69543;42.138;24.742;2023-04-25T08:04:13;8.30;;;3.13;;
80235;SDS011;69543;42.138;24.742;2023-04-25T08:06:39;5.53;;;3.53;;
80235;SDS011;69543;42.138;24.742;2023-04-25T08:09:05;5.38;;;2.78;;
80235;SDS011;69543;42.138;24.742;2023-04-25T08:11:31;4.70;;;3.00;;
80235;SDS011;69543;42.138;24.742;2023-04-25T08:13:57;5.47;;;3.08;;
80235;SDS011;69543;42.138;24.742;2023-04-25T08:16:22;6.55;;;3.63;;
80235;SDS011;69543;42.138;24.742;2023-04-25T08:18:49;3.50;;;2.85;;
80235;SDS011;69543;42.138;24.742;2023-04-25T08:21:15;5.75;;;3.60;;
80235;SDS011;69543;42.138;24.742;2023-04-25T08:23:41;5.20;;;3.08;;
80235;SDS011;69543;42.138;24.742;2023-04-25T08:26:06;4.35;;;3.00;;
80235;SDS011;69543;42.138;24.742;2023-04-25T08:28:32;4.80;;;3.17;;
80235;SDS011;69543;42.138;24.742;2023-04-25T08:30:58;7.88;;;2.92;;
80235;SDS011;69543;42.138;24.742;2023-04-25T08:33:24;6.80;;;2.70;;
80235;SDS011;69543;42.138;24.742;2023-04-25T08:35:50;10.95;;;2.88;;
80235;SDS011;69543;42.138;24.742;2023-04-25T08:38:17;5.95;;;3.08;;
80235;SDS011;69543;42.138;24.742;2023-04-25T08:40:43;7.15;;;3.10;;
80235;SDS011;69543;42.138;24.742;2023-04-25T08:43:09;6.60;;;3.10;;
80235;SDS011;69543;42.138;24.742;2023-04-25T08:45:40;4.40;;;2.75;;
80235;SDS011;69543;42.138;24.742;2023-04-25T08:48:13;3.42;;;2.55;;
80235;SDS011;69543;42.138;24.742;2023-04-25T08:50:50;4.25;;;2.67;;
80235;SDS011;69543;42.138;24.742;2023-04-25T08:53:25;6.05;;;2.85;;
80235;SDS011;69543;42.138;24.742;2023-04-25T08:55:53;5.68;;;2.80;;
80235;SDS011;69543;42.138;24.742;2023-04-25T08:58:20;6.13;;;2.70;;
80235;SDS011;69543;42.138;24.742;2023-04-25T09:00:47;6.03;;;2.60;;
80235;SDS011;69543;42.138;24.742;2023-04-25T09:03:14;3.35;;;2.83;;
80235;SDS011;69543;42.138;24.742;2023-04-25T09:05:40;3.75;;;2.70;;
80235;SDS011;69543;42.138;24.742;2023-04-25T09:08:06;6.30;;;3.08;;
80235;SDS011;69543;42.138;24.742;2023-04-25T09:10:32;3.65;;;2.60;;
80235;SDS011;69543;42.138;24.742;2023-04-25T09:13:02;3.67;;;2.72;;
80235;SDS011;69543;42.138;24.742;2023-04-25T09:15:48;8.70;;;2.83;;
80235;SDS011;69543;42.138;24.742;2023-04-25T09:18:25;4.00;;;2.72;;
80235;SDS011;69543;42.138;24.742;2023-04-25T09:20:51;4.45;;;2.58;;
80235;SDS011;69543;42.138;24.742;2023-04-25T09:23:21;4.68;;;2.65;;
80235;SDS011;69543;42.138;24.742;2023-04-25T09:25:48;4.22;;;2.65;;
80235;SDS011;69543;42.138;24.742;2023-04-25T09:28:25;4.63;;;2.78;;
80235;SDS011;69543;42.138;24.742;2023-04-25T09:30:56;5.47;;;2.65;;
80235;SDS011;69543;42.138;24.742;2023-04-25T09:33:28;7.57;;;2.83;;
80235;SDS011;69543;42.138;24.742;2023-04-25T09:36:01;3.05;;;2.42;;
80235;SDS011;69543;42.138;24.742;2023-04-25T09:38:27;5.72;;;2.50;;
80235;SDS011;69543;42.138;24.742;2023-04-25T09:40:56;6.93;;;2.78;;
80235;SDS011;69543;42.138;24.742;2023-04-25T09:43:24;4.50;;;2.50;;
80235;SDS011;69543;42.138;24.742;2023-04-25T09:45:53;5.82;;;3.08;;
80235;SDS011;69543;42.138;24.742;2023-04-25T09:48:23;4.57;;;2.88;;
80235;SDS011;69543;42.138;24.742;2023-04-25T09:53:36;2.75;;;2.30;;
80235;SDS011;69543;42.138;24.742;2023-04-25T09:56:04;3.42;;;2.35;;
80235;SDS011;69543;42.138;24.742;2023-04-25T09:58:32;4.03;;;2.60;;
80235;SDS011;69543;42.138;24.742;2023-04-25T10:01:02;4.50;;;2.53;;
80235;SDS011;69543;42.138;24.742;2023-04-25T10:03:33;3.35;;;2.40;;
80235;SDS011;69543;42.138;24.742;2023-04-25T10:06:00;3.60;;;2.30;;
80235;SDS011;69543;42.138;24.742;2023-04-25T10:08:32;7.60;;;2.65;;
80235;SDS011;69543;42.138;24.742;2023-04-25T10:11:01;3.20;;;2.55;;
80235;SDS011;69543;42.138;24.742;2023-04-25T10:13:31;4.40;;;2.47;;
80235;SDS011;69543;42.138;24.742;2023-04-25T10:15:58;5.80;;;2.30;;
80235;SDS011;69543;42.138;24.742;2023-04-25T10:18:26;3.33;;;2.40;;
80235;SDS011;69543;42.138;24.742;2023-04-25T10:20:53;3.78;;;2.10;;
80235;SDS011;69543;42.138;24.742;2023-04-25T10:23:20;3.25;;;2.30;;
80235;SDS011;69543;42.138;24.742;2023-04-25T10:25:46;2.70;;;2.20;;
80235;SDS011;69543;42.138;24.742;2023-04-25T10:28:12;3.35;;;2.35;;
80235;SDS011;69543;42.138;24.742;2023-04-25T10:30:44;6.90;;;2.40;;
80235;SDS011;69543;42.138;24.742;2023-04-25T10:33:29;5.47;;;2.58;;
80235;SDS011;69543;42.138;24.742;2023-04-25T10:35:58;3.20;;;2.35;;
80235;SDS011;69543;42.138;24.742;2023-04-25T10:38:24;3.50;;;2.42;;
80235;SDS011;69543;42.138;24.742;2023-04-25T10:41:07;5.57;;;2.80;;
80235;SDS011;69543;42.138;24.742;2023-04-25T10:43:38;3.35;;;2.28;;
80235;SDS011;69543;42.138;24.742;2023-04-25T10:48:51;2.78;;;2.42;;
80235;SDS011;69543;42.138;24.742;2023-04-25T10:51:25;2.95;;;2.40;;
80235;SDS011;69543;42.138;24.742;2023-04-25T10:56:21;7.57;;;2.47;;
80235;SDS011;69543;42.138;24.742;2023-04-25T10:58:50;3.72;;;2.55;;
80235;SDS011;69543;42.138;24.742;2023-04-25T11:01:20;7.03;;;2.67;;
80235;SDS011;69543;42.138;24.742;2023-04-25T11:03:46;7.95;;;2.30;;
80235;SDS011;69543;42.138;24.742;2023-04-25T11:09:10;3.13;;;2.30;;
80235;SDS011;69543;42.138;24.742;2023-04-25T11:11:40;2.40;;;2.10;;
80235;SDS011;69543;42.138;24.742;2023-04-25T11:14:06;7.20;;;2.50;;
80235;SDS011;69543;42.138;24.742;2023-04-25T11:16:32;3.75;;;2.25;;
80235;SDS011;69543;42.138;24.742;2023-04-25T11:18:58;4.45;;;2.40;;
80235;SDS011;69543;42.138;24.742;2023-04-25T11:21:26;4.05;;;2.45;;
80235;SDS011;69543;42.138;24.742;2023-04-25T11:23:56;3.78;;;2.60;;
80235;SDS011;69543;42.138;24.742;2023-04-25T11:26:23;3.92;;;2.40;;
80235;SDS011;69543;42.138;24.742;2023-04-25T11:28:51;4.60;;;2.38;;
80235;SDS011;69543;42.138;24.742;2023-04-25T11:31:19;3.90;;;2.38;;
80235;SDS011;69543;42.138;24.742;2023-04-25T11:33:46;3.95;;;2.20;;
80235;SDS011;69543;42.138;24.742;2023-04-25T11:36:13;3.17;;;2.20;;
80235;SDS011;69543;42.138;24.742;2023-04-25T11:38:39;4.47;;;2.30;;
80235;SDS011;69543;42.138;24.742;2023-04-25T11:41:05;4.68;;;2.50;;
80235;SDS011;69543;42.138;24.742;2023-04-25T11:43:31;6.15;;;2.67;;
80235;SDS011;69543;42.138;24.742;2023-04-25T11:45:57;2.30;;;1.90;;
80235;SDS011;69543;42.138;24.742;2023-04-25T11:48:22;4.18;;;2.17;;
80235;SDS011;69543;42.138;24.742;2023-04-25T11:50:48;4.75;;;2.28;;
80235;SDS011;69543;42.138;24.742;2023-04-25T11:53:14;3.58;;;2.20;;
80235;SDS011;69543;42.138;24.742;2023-04-25T11:55:42;5.15;;;2.30;;
80235;SDS011;69543;42.138;24.742;2023-04-25T11:58:08;3.25;;;2.35;;
80235;SDS011;69543;42.138;24.742;2023-04-25T12:00:33;3.90;;;2.30;;
80235;SDS011;69543;42.138;24.742;2023-04-25T12:03:00;3.80;;;2.22;;
80235;SDS011;69543;42.138;24.742;2023-04-25T12:05:28;2.67;;;2.30;;
80235;SDS011;69543;42.138;24.742;2023-04-25T12:10:23;9.13;;;2.47;;
80235;SDS011;69543;42.138;24.742;2023-04-25T12:12:50;3.42;;;2.22;;
80235;SDS011;69543;42.138;24.742;2023-04-25T12:17:47;3.42;;;2.40;;
80235;SDS011;69543;42.138;24.742;2023-04-25T12:20:15;3.22;;;2.75;;
80235;SDS011;69543;42.138;24.742;2023-04-25T12:22:43;7.53;;;2.30;;
80235;SDS011;69543;42.138;24.742;2023-04-25T12:25:13;3.13;;;2.30;;
80235;SDS011;69543;42.138;24.742;2023-04-25T12:28:09;3.47;;;2.17;;
80235;SDS011;69543;42.138;24.742;2023-04-25T12:30:57;4.65;;;2.38;;
80235;SDS011;69543;42.138;24.742;2023-04-25T12:33:36;3.83;;;2.28;;
80235;SDS011;69543;42.138;24.742;2023-04-25T12:36:03;4.72;;;2.40;;
80235;SDS011;69543;42.138;24.742;2023-04-25T12:38:37;3.53;;;2.38;;
80235;SDS011;69543;42.138;24.742;2023-04-25T12:41:05;3.38;;;2.47;;
80235;SDS011;69543;42.138;24.742;2023-04-25T12:43:31;3.53;;;2.28;;
80235;SDS011;69543;42.138;24.742;2023-04-25T12:45:57;4.28;;;2.50;;
80235;SDS011;69543;42.138;24.742;2023-04-25T12:48:23;2.85;;;2.10;;
80235;SDS011;69543;42.138;24.742;2023-04-25T12:50:49;3.13;;;2.40;;
80235;SDS011;69543;42.138;24.742;2023-04-25T12:53:16;4.00;;;2.10;;
80235;SDS011;69543;42.138;24.742;2023-04-25T12:55:44;3.42;;;2.17;;
80235;SDS011;69543;42.138;24.742;2023-04-25T12:58:13;3.63;;;2.45;;
80235;SDS011;69543;42.138;24.742;2023-04-25T13:00:39;5.15;;;2.45;;
80235;SDS011;69543;42.138;24.742;2023-04-25T13:03:05;4.55;;;2.38;;
80235;SDS011;69543;42.138;24.742;2023-04-25T13:05:31;3.78;;;2.47;;
80235;SDS011;69543;42.138;24.742;2023-04-25T13:07:56;2.90;;;2.03;;
80235;SDS011;69543;42.138;24.742;2023-04-25T13:10:22;3.38;;;2.25;;
80235;SDS011;69543;42.138;24.742;2023-04-25T13:12:48;3.05;;;2.40;;
80235;SDS011;69543;42.138;24.742;2023-04-25T13:15:13;7.22;;;2.40;;
80235;SDS011;69543;42.138;24.742;2023-04-25T13:17:40;5.10;;;2.35;;
80235;SDS011;69543;42.138;24.742;2023-04-25T13:20:07;7.07;;;2.50;;
80235;SDS011;69543;42.138;24.742;2023-04-25T13:22:37;6.28;;;2.58;;
80235;SDS011;69543;42.138;24.742;2023-04-25T13:25:04;2.65;;;2.13;;
80235;SDS011;69543;42.138;24.742;2023-04-25T13:27:31;2.72;;;2.22;;
80235;SDS011;69543;42.138;24.742;2023-04-25T13:29:59;2.55;;;2.25;;
80235;SDS011;69543;42.138;24.742;2023-04-25T13:32:25;2.78;;;2.25;;
80235;SDS011;69543;42.138;24.742;2023-04-25T13:34:51;3.08;;;2.25;;
80235;SDS011;69543;42.138;24.742;2023-04-25T13:37:18;6.85;;;2.25;;
80235;SDS011;69543;42.138;24.742;2023-04-25T13:39:43;2.97;;;2.25;;
80235;SDS011;69543;42.138;24.742;2023-04-25T13:42:09;2.80;;;2.30;;
80235;SDS011;69543;42.138;24.742;2023-04-25T13:44:36;2.90;;;2.30;;
80235;SDS011;69543;42.138;24.742;2023-04-25T13:47:01;4.25;;;2.25;;
80235;SDS011;69543;42.138;24.742;2023-04-25T13:49:27;6.68;;;2.20;;
80235;SDS011;69543;42.138;24.742;2023-04-25T13:51:53;3.35;;;2.20;;
80235;SDS011;69543;42.138;24.742;2023-04-25T13:54:18;3.92;;;2.10;;
80235;SDS011;69543;42.138;24.742;2023-04-25T13:56:44;3.25;;;2.20;;
80235;SDS011;69543;42.138;24.742;2023-04-25T13:59:10;3.72;;;2.25;;
80235;SDS011;69543;42.138;24.742;2023-04-25T14:01:36;3.58;;;2.33;;
80235;SDS011;69543;42.138;24.742;2023-04-25T14:04:02;5.70;;;2.03;;
80235;SDS011;69543;42.138;24.742;2023-04-25T14:06:31;3.25;;;2.30;;
80235;SDS011;69543;42.138;24.742;2023-04-25T14:08:57;3.35;;;2.20;;
80235;SDS011;69543;42.138;24.742;2023-04-25T14:11:25;3.28;;;2.00;;
80235;SDS011;69543;42.138;24.742;2023-04-25T14:13:51;3.92;;;2.15;;
80235;SDS011;69543;42.138;24.742;2023-04-25T14:16:16;4.05;;;2.10;;
80235;SDS011;69543;42.138;24.742;2023-04-25T14:18:42;4.47;;;2.05;;
80235;SDS011;69543;42.138;24.742;2023-04-25T14:21:07;4.75;;;2.22;;
80235;SDS011;69543;42.138;24.742;2023-04-25T14:23:34;10.88;;;2.10;;
80235;SDS011;69543;42.138;24.742;2023-04-25T14:25:59;2.72;;;2.10;;
80235;SDS011;69543;42.138;24.742;2023-04-25T14:28:25;2.30;;;2.10;;
80235;SDS011;69543;42.138;24.742;2023-04-25T14:30:51;3.17;;;2.47;;
80235;SDS011;69543;42.138;24.742;2023-04-25T14:33:16;4.95;;;2.47;;
80235;SDS011;69543;42.138;24.742;2023-04-25T14:35:42;3.35;;;2.00;;
80235;SDS011;69543;42.138;24.742;2023-04-25T14:38:07;2.60;;;2.30;;
80235;SDS011;69543;42.138;24.742;2023-04-25T14:40:33;2.85;;;2.10;;
80235;SDS011;69543;42.138;24.742;2023-04-25T14:42:59;2.40;;;1.92;;
80235;SDS011;69543;42.138;24.742;2023-04-25T14:45:24;3.13;;;2.20;;
80235;SDS011;69543;42.138;24.742;2023-04-25T14:47:50;2.53;;;2.00;;